KMLT

Millinocket Municipal Airport

Millinocket, Maine, USA
METAR KMLT 231053Z AUTO 00000KT 10SM FEW006 13/11 A2983 RMK AO2 SLP105 T01280111
Observed Flight Rules
May-23 @ 10:53 UTC (18 minutes ago) Visual Flight Rules
Visibility Clouds
10 miles
  • Few at 600' AGL
Temperatures Readings
Current 13°C / 55°F
Dewpoint 11°C / 52°F
Humidity 88%
Altimeter 29.83" Hg
Pressure 1010.5 hPa
Elevation 123
METAR KMLT 231053Z AUTO 00000KT 10SM FEW006 13/11 A2983 RMK AO2 SLP105 T01280111
Observed Flight Rules
May-23 @ 10:53 UTC
(18 minutes ago)
VFR
Clouds
  • Few at 600' AGL
Temperature Dewpoint
13°C / 55°F 11°C / 52°F
Humidity Altimeter Pressure
88% 29.83" Hg 1010.5 hPa